Lexington, KY (40513)

6:10 AM EDT on July 23, 2016 (GMT -0400)
Beaumont | | Change Station

Elev 976 ft 38.02 °N, 84.56 °W | Updated 19 seconds ago

Clear
Clear
71.0 °F
Feels Like 71 °F
N
0.0
Wind Variable Wind from SSW
Gusts 0.0 mph

Today
High -- | Low -- °F
--% Chance of Precip.
Yesterday
High -- | Low -- °F
Precip. -- in
Pressure 30.01 in
Visibility 8.0 miles
Clouds Clear
Heat Index 71 °F
Dew Point 66 °F
Humidity 83%
Rainfall 0.00 in
Snow Depth Not available.
6:34 AM 8:54 PM
Waning Gibbous, 86% visible
METAR KLEX 230954Z AUTO 00000KT 8SM CLR 22/20 A3004 RMK AO2 SLP160 T02170200
Pressure 30.01 in
Visibility 8.0 miles
Clouds Clear
Heat Index 71 °F
Dew Point 66 °F
Humidity 83%
Rainfall 0.00 in
Snow Depth Not available.
6:34 AM 8:54 PM
Waning Gibbous, 86% visible
METAR KLEX 230954Z AUTO 00000KT 8SM CLR 22/20 A3004 RMK AO2 SLP160 T02170200

10-Day Weather Forecast

Almanac

Astronomy

Jul. 23, 2016 Rise Set
Actual Time
Civil Twilight
Nautical Twilight
Astronomical Twilight
Moon
Length of Visible Light
Length of Day
Tomorrow will be .
, % of the Moon is Illuminated

Today's Extremes

State Highs State Lows

Community

WunderPhotos

Upload Photos

1,926,790 photos uploaded!

WunderBlog® & News

Nearby

Air Quality

  Air Quality AQ Index Pollutant
Not available.

Snow Depth

Station Depth Elevation

Earthquake Activity

City Distance Mag. Time & Date
Minimum magnitude displayed is 2.5.

Coastal Water Temperatures

Place Temperature

Stations

Nearby Weather Stations

Station Location Temp. Windchill Dew Point Humidity Wind Precip. Elev Updated Type
                   

Watches & Warnings

There are currently no watches in effect.